Time;durP1;ratioP1;P1;durP2;ratioP2;P2;SDS_P1;SDS_P2;PMS_P1;PMS_P2;Temp;Humidity;BMP_temperature;BMP_pressure;BME280_temperature;BME280_humidity;BME280_pressure;Samples;Min_cycle;Max_cycle;Signal;HPM_P1;HPM_P2
2022/08/09 00:02:07;;;;;;;7.03;5.47;;;15.70;99.90;;;;;;5035459;28;20045;-70
2022/08/09 00:04:33;;;;;;;9.23;6.20;;;15.70;99.90;;;;;;5035446;28;20045;-69
2022/08/09 00:07:00;;;;;;;9.13;6.00;;;15.60;99.90;;;;;;5035525;28;20119;-70
2022/08/09 00:09:25;;;;;;;8.40;6.03;;;15.60;99.90;;;;;;5035326;28;20041;-68
2022/08/09 00:11:51;;;;;;;7.75;6.00;;;15.60;99.90;;;;;;5018239;28;20167;-68
2022/08/09 00:14:17;;;;;;;9.63;6.13;;;15.60;99.90;;;;;;5035278;28;20111;-68
2022/08/09 00:16:43;;;;;;;6.40;5.45;;;15.50;99.90;;;;;;5018028;28;20057;-68
2022/08/09 00:19:08;;;;;;;7.05;5.68;;;15.50;99.90;;;;;;5034994;28;20060;-69
2022/08/09 00:21:35;;;;;;;9.15;6.70;;;15.50;99.90;;;;;;5035159;28;20060;-70
2022/08/09 00:24:02;;;;;;;10.13;6.13;;;15.40;99.90;;;;;;5034697;28;20447;-68
2022/08/09 00:26:28;;;;;;;11.35;7.15;;;15.40;99.90;;;;;;5035244;28;20041;-69
2022/08/09 00:28:54;;;;;;;10.52;6.65;;;15.40;99.90;;;;;;5035469;28;20060;-69
2022/08/09 00:31:24;;;;;;;9.50;6.55;;;15.30;99.90;;;;;;5017966;28;20046;-68
2022/08/09 00:33:51;;;;;;;9.70;6.15;;;15.30;99.90;;;;;;5034768;28;20060;-68
2022/08/09 00:36:17;;;;;;;8.40;7.15;;;15.40;99.90;;;;;;5034852;28;20371;-68
2022/08/09 00:38:44;;;;;;;9.45;6.70;;;15.40;99.90;;;;;;5034995;28;20111;-68
2022/08/09 00:41:10;;;;;;;9.23;7.25;;;15.30;99.90;;;;;;5034831;28;20463;-69
2022/08/09 00:43:36;;;;;;;8.27;6.40;;;15.30;99.90;;;;;;5034912;28;20041;-69
2022/08/09 00:46:08;;;;;;;9.02;6.30;;;15.30;99.90;;;;;;5034633;28;20056;-68
2022/08/09 00:48:34;;;;;;;8.52;6.72;;;15.30;99.90;;;;;;5034584;28;20348;-69
2022/08/09 00:51:02;;;;;;;9.18;6.53;;;15.20;99.90;;;;;;5034751;28;20053;-68
2022/08/09 00:53:29;;;;;;;9.93;7.03;;;15.20;99.90;;;;;;5034675;28;20068;-68
2022/08/09 00:55:55;;;;;;;8.80;6.63;;;15.20;99.90;;;;;;5035149;28;20088;-68
2022/08/09 00:58:20;;;;;;;7.90;5.97;;;15.20;99.90;;;;;;5035087;28;20123;-69
2022/08/09 01:00:48;;;;;;;9.65;6.53;;;15.20;99.90;;;;;;5034904;28;20049;-68
2022/08/09 01:03:40;;;;;;;8.23;6.75;;;15.10;99.90;;;;;;5034840;28;20053;-68
2022/08/09 01:06:29;;;;;;;10.48;7.47;;;15.10;99.90;;;;;;5034820;28;20041;-68
2022/08/09 01:09:17;;;;;;;7.93;6.65;;;15.10;99.90;;;;;;5034813;28;20053;-71
2022/08/09 01:11:53;;;;;;;6.38;5.78;;;15.00;99.90;;;;;;5034510;28;20045;-69
2022/08/09 01:14:25;;;;;;;9.15;6.68;;;15.00;99.90;;;;;;5034641;28;20056;-70
2022/08/09 01:16:57;;;;;;;11.25;6.40;;;15.00;99.90;;;;;;5034646;28;20395;-68
2022/08/09 01:19:38;;;;;;;8.65;6.57;;;15.00;99.90;;;;;;5034679;28;20049;-69
2022/08/09 01:22:37;;;;;;;6.40;5.80;;;15.00;99.90;;;;;;5034472;28;20046;-70
2022/08/09 01:25:25;;;;;;;8.38;6.30;;;15.00;99.90;;;;;;5034631;28;20129;-68
2022/08/09 01:27:53;;;;;;;7.47;6.45;;;14.90;99.90;;;;;;5034681;28;20048;-67
2022/08/09 01:30:23;;;;;;;7.22;6.38;;;14.90;99.90;;;;;;5034557;28;20440;-70
2022/08/09 01:32:50;;;;;;;10.20;6.22;;;14.90;99.90;;;;;;5034421;28;20041;-69
2022/08/09 01:35:31;;;;;;;7.85;6.30;;;14.80;99.90;;;;;;5034316;28;20466;-71
2022/08/09 01:38:00;;;;;;;12.35;6.88;;;14.80;99.90;;;;;;5034395;28;20046;-69
2022/08/09 01:40:27;;;;;;;9.55;6.72;;;14.80;99.90;;;;;;5034627;28;20042;-67
2022/08/09 01:42:55;;;;;;;10.02;6.40;;;14.80;99.90;;;;;;5034267;28;20524;-68
2022/08/09 01:45:23;;;;;;;9.23;5.93;;;14.70;99.90;;;;;;5034686;28;20037;-67
2022/08/09 01:47:49;;;;;;;8.43;5.65;;;14.70;99.90;;;;;;5037763;28;20034;-69
2022/08/09 01:50:15;;;;;;;9.77;6.15;;;14.70;99.90;;;;;;5038025;28;20058;-69
2022/08/09 01:52:43;;;;;;;9.10;5.75;;;14.70;99.90;;;;;;5037907;28;20111;-70
2022/08/09 01:55:09;;;;;;;8.95;5.90;;;14.70;99.90;;;;;;5037839;28;20121;-68
2022/08/09 01:57:42;;;;;;;6.90;5.78;;;14.60;99.90;;;;;;5038177;28;20412;-68
2022/08/09 02:00:10;;;;;;;6.57;5.88;;;14.60;99.90;;;;;;5038142;28;20387;-70
2022/08/09 02:02:41;;;;;;;8.75;6.53;;;14.70;99.90;;;;;;5016190;28;20038;-69
2022/08/09 02:05:10;;;;;;;8.45;6.00;;;14.70;99.90;;;;;;5037728;28;20043;-69
2022/08/09 02:07:40;;;;;;;6.75;5.80;;;14.60;99.90;;;;;;5037626;28;20498;-69
2022/08/09 02:10:15;;;;;;;8.95;6.35;;;14.60;99.90;;;;;;5037843;28;20072;-68
2022/08/09 02:12:42;;;;;;;8.25;5.80;;;14.60;99.90;;;;;;5037202;28;20041;-69
2022/08/09 02:15:11;;;;;;;7.30;6.30;;;14.50;99.90;;;;;;5037536;28;20060;-68
2022/08/09 02:17:38;;;;;;;8.77;5.80;;;14.50;99.90;;;;;;5037477;28;20052;-66
2022/08/09 02:20:05;;;;;;;10.88;5.78;;;14.50;99.90;;;;;;5037481;28;20330;-70
2022/08/09 02:22:43;;;;;;;9.80;5.78;;;14.50;99.90;;;;;;5037479;28;20045;-69
2022/08/09 02:25:15;;;;;;;8.50;6.00;;;14.50;99.90;;;;;;5037264;28;20055;-69
2022/08/09 02:27:51;;;;;;;7.05;5.40;;;14.40;99.90;;;;;;5019676;28;20456;-69
2022/08/09 02:30:16;;;;;;;8.45;5.65;;;14.50;99.90;;;;;;5037256;28;20096;-68
2022/08/09 02:32:44;;;;;;;8.40;5.60;;;14.40;99.90;;;;;;5037097;28;20076;-68
2022/08/09 02:35:17;;;;;;;7.68;6.70;;;14.40;99.90;;;;;;5036727;28;20505;-68
2022/08/09 02:37:46;;;;;;;7.72;5.72;;;14.40;99.90;;;;;;5036899;28;20037;-70
2022/08/09 02:40:15;;;;;;;8.68;6.00;;;14.30;99.90;;;;;;5036982;28;20053;-68
2022/08/09 02:42:43;;;;;;;9.95;5.88;;;14.30;99.90;;;;;;5036820;28;20103;-67
2022/08/09 02:45:31;;;;;;;8.02;5.63;;;14.30;99.90;;;;;;5036993;28;20049;-68
2022/08/09 02:48:02;;;;;;;6.60;5.78;;;14.30;99.90;;;;;;5036843;28;20107;-69
2022/08/09 02:50:42;;;;;;;8.45;5.63;;;14.20;99.90;;;;;;5036822;28;20096;-68
2022/08/09 02:53:26;;;;;;;8.05;5.07;;;14.30;99.90;;;;;;5036743;28;20072;-70
2022/08/09 02:55:56;;;;;;;5.95;5.38;;;14.20;99.90;;;;;;5036731;28;20052;-68
2022/08/09 02:58:25;;;;;;;7.97;5.35;;;14.20;99.90;;;;;;5036398;28;20069;-68
2022/08/09 03:00:52;;;;;;;6.57;5.40;;;14.20;99.90;;;;;;5036607;28;20042;-67
2022/08/09 03:03:20;;;;;;;6.03;5.22;;;14.10;99.90;;;;;;5036503;28;20364;-68
2022/08/09 03:05:49;;;;;;;5.85;4.80;;;14.20;99.90;;;;;;5036800;28;20041;-66
2022/08/09 03:08:15;;;;;;;5.70;4.90;;;14.20;99.90;;;;;;5036511;28;20118;-68
2022/08/09 03:10:44;;;;;;;8.05;5.20;;;14.10;99.90;;;;;;5036450;28;20045;-68
2022/08/09 03:13:10;;;;;;;5.32;4.57;;;14.10;99.90;;;;;;5036237;28;20091;-68
2022/08/09 03:15:38;;;;;;;6.90;4.50;;;14.10;99.90;;;;;;5036168;28;20150;-67
2022/08/09 03:18:04;;;;;;;7.57;4.53;;;14.10;99.90;;;;;;5036305;28;20448;-67
2022/08/09 03:20:30;;;;;;;5.93;4.70;;;14.10;99.90;;;;;;5036334;28;20050;-69
2022/08/09 03:22:57;;;;;;;5.50;4.45;;;14.00;99.90;;;;;;5036127;28;20167;-68
2022/08/09 03:25:22;;;;;;;5.32;4.57;;;14.00;99.90;;;;;;5036072;28;20384;-68
2022/08/09 03:27:50;;;;;;;5.47;4.30;;;14.00;99.90;;;;;;5036102;28;20068;-70
2022/08/09 03:30:16;;;;;;;5.13;3.83;;;14.00;99.90;;;;;;5036211;28;20071;-67
2022/08/09 03:32:42;;;;;;;6.60;4.57;;;14.00;99.90;;;;;;5036070;28;20109;-69
2022/08/09 03:35:11;;;;;;;5.20;3.83;;;13.90;99.90;;;;;;5036128;28;20132;-66
2022/08/09 03:37:40;;;;;;;5.28;4.20;;;14.00;99.90;;;;;;5035598;28;20049;-70
2022/08/09 03:40:07;;;;;;;5.28;3.40;;;13.90;99.90;;;;;;5035782;28;20042;-68
2022/08/09 03:42:33;;;;;;;4.15;3.53;;;13.90;99.90;;;;;;5035761;28;20100;-69
2022/08/09 03:44:58;;;;;;;3.50;3.17;;;13.90;99.90;;;;;;5035281;28;20084;-67
2022/08/09 03:47:24;;;;;;;5.28;3.45;;;13.90;99.90;;;;;;5036044;28;20037;-67
2022/08/09 03:49:51;;;;;;;5.60;3.47;;;13.80;99.90;;;;;;5035679;28;20061;-69
2022/08/09 03:52:18;;;;;;;4.05;3.42;;;13.80;99.90;;;;;;5035775;28;20053;-67
2022/08/09 03:54:46;;;;;;;4.22;3.25;;;13.80;99.90;;;;;;5035577;28;20448;-68
2022/08/09 03:57:13;;;;;;;4.07;3.15;;;13.70;99.90;;;;;;5035584;28;20057;-68
2022/08/09 03:59:40;;;;;;;6.88;3.13;;;13.70;99.90;;;;;;5035828;28;20060;-69
2022/08/09 04:02:06;;;;;;;4.18;2.90;;;13.70;99.90;;;;;;5035495;28;20096;-68
2022/08/09 04:04:33;;;;;;;6.20;2.88;;;13.70;99.90;;;;;;5035307;28;20073;-68
2022/08/09 04:06:59;;;;;;;6.32;3.20;;;13.70;99.90;;;;;;5035445;28;20450;-69
2022/08/09 04:09:25;;;;;;;3.72;2.95;;;13.70;99.90;;;;;;5034730;28;20135;-66
2022/08/09 04:12:08;;;;;;;4.20;2.92;;;13.70;99.90;;;;;;5035365;28;20053;-69
2022/08/09 04:14:35;;;;;;;3.42;2.85;;;13.70;99.90;;;;;;5035389;28;20107;-69
2022/08/09 04:17:00;;;;;;;3.80;3.25;;;13.60;99.90;;;;;;5035336;28;20392;-70
2022/08/09 04:19:26;;;;;;;5.47;3.17;;;13.60;99.90;;;;;;5035399;28;20860;-70
2022/08/09 04:21:52;;;;;;;4.63;2.88;;;13.60;99.90;;;;;;5035179;28;20091;-67
2022/08/09 04:24:17;;;;;;;4.07;2.95;;;13.60;99.90;;;;;;5035133;28;20059;-67
2022/08/09 04:26:43;;;;;;;5.80;3.00;;;13.70;99.90;;;;;;5035182;28;20045;-69
2022/08/09 04:29:08;;;;;;;3.70;2.95;;;13.70;99.90;;;;;;5035078;28;20100;-68
2022/08/09 04:31:34;;;;;;;2.90;2.67;;;13.70;99.90;;;;;;5035177;28;20401;-70
2022/08/09 04:34:00;;;;;;;3.45;3.15;;;13.70;99.90;;;;;;5035208;28;20111;-69
2022/08/09 04:36:27;;;;;;;3.42;2.97;;;13.60;99.90;;;;;;5034983;28;20060;-67
2022/08/09 04:38:55;;;;;;;4.32;3.33;;;13.60;99.90;;;;;;5035166;28;20123;-67
2022/08/09 04:41:21;;;;;;;4.03;3.30;;;13.70;99.90;;;;;;5035035;28;20095;-67
2022/08/09 04:43:47;;;;;;;4.28;2.97;;;13.70;99.90;;;;;;5035049;28;20041;-69
2022/08/09 04:46:12;;;;;;;4.50;3.78;;;13.70;99.90;;;;;;5034811;28;20056;-68
2022/08/09 04:48:38;;;;;;;4.45;3.13;;;13.70;99.90;;;;;;5034610;28;20055;-70
2022/08/09 04:51:03;;;;;;;4.03;3.60;;;13.70;99.90;;;;;;5034700;28;20363;-68
2022/08/09 04:53:29;;;;;;;5.43;3.95;;;13.80;99.90;;;;;;5035199;28;20146;-67
2022/08/09 04:55:54;;;;;;;5.03;3.83;;;13.80;99.90;;;;;;5034794;28;20052;-68
2022/08/09 04:58:20;;;;;;;5.80;3.67;;;13.80;99.90;;;;;;5034918;28;20367;-68
2022/08/09 05:00:46;;;;;;;4.55;2.97;;;13.80;99.90;;;;;;5034770;28;20045;-68
2022/08/09 05:03:11;;;;;;;5.13;3.25;;;13.80;99.90;;;;;;5034159;28;20121;-69
2022/08/09 05:05:37;;;;;;;6.45;3.63;;;13.90;99.90;;;;;;5034924;28;20057;-67
2022/08/09 05:08:03;;;;;;;3.97;3.00;;;13.90;99.90;;;;;;5034673;28;20111;-70
2022/08/09 05:10:28;;;;;;;5.45;4.28;;;13.90;99.90;;;;;;5034780;28;20049;-67
2022/08/09 05:12:54;;;;;;;5.45;3.63;;;14.00;99.90;;;;;;5034812;28;20124;-70
2022/08/09 05:15:20;;;;;;;4.00;3.10;;;14.10;99.90;;;;;;5034614;28;20435;-69
2022/08/09 05:17:46;;;;;;;6.72;3.45;;;14.10;99.90;;;;;;5034760;28;20061;-68
2022/08/09 05:20:11;;;;;;;4.00;3.35;;;14.00;99.90;;;;;;5036384;28;20080;-69
2022/08/09 05:22:37;;;;;;;4.35;3.65;;;14.20;99.90;;;;;;5038580;28;20034;-67
2022/08/09 05:25:03;;;;;;;4.65;3.72;;;14.20;99.90;;;;;;5038296;28;20056;-68
2022/08/09 05:27:29;;;;;;;7.38;4.50;;;14.20;99.90;;;;;;5038396;28;20081;-70
2022/08/09 05:29:54;;;;;;;6.68;4.15;;;14.20;99.90;;;;;;5038420;28;20103;-69
2022/08/09 05:32:21;;;;;;;5.78;4.43;;;14.30;99.90;;;;;;5037674;28;20629;-69
2022/08/09 05:34:47;;;;;;;6.82;4.97;;;14.30;99.90;;;;;;5038308;28;20042;-69
2022/08/09 05:37:12;;;;;;;5.40;4.47;;;14.40;99.90;;;;;;5038175;28;20110;-71
2022/08/09 05:39:39;;;;;;;7.05;4.35;;;14.40;99.90;;;;;;5038111;28;20158;-68
2022/08/09 05:42:05;;;;;;;6.43;4.55;;;14.50;99.90;;;;;;5038267;28;20041;-67
2022/08/09 05:44:31;;;;;;;4.82;4.05;;;14.50;99.90;;;;;;5038062;28;20037;-69
2022/08/09 05:46:57;;;;;;;6.40;4.93;;;14.60;99.90;;;;;;5038043;28;20111;-68
2022/08/09 05:49:22;;;;;;;8.80;4.75;;;14.60;99.90;;;;;;5037603;28;20400;-68
2022/08/09 05:51:48;;;;;;;5.35;4.50;;;14.60;99.90;;;;;;5037686;28;20060;-68
2022/08/09 05:54:14;;;;;;;8.00;4.93;;;14.80;99.90;;;;;;5037755;28;20041;-67
2022/08/09 05:56:39;;;;;;;7.30;5.05;;;14.70;99.90;;;;;;5037799;28;20466;-69
2022/08/09 05:59:06;;;;;;;8.23;5.53;;;14.80;99.90;;;;;;5037868;28;20042;-68
2022/08/09 06:01:31;;;;;;;8.95;5.60;;;14.90;99.90;;;;;;5037728;28;20060;-67
2022/08/09 06:03:57;;;;;;;11.75;5.45;;;15.00;99.90;;;;;;5037477;28;20045;-66
2022/08/09 06:06:23;;;;;;;9.52;5.78;;;15.10;99.90;;;;;;5037533;28;20107;-69
2022/08/09 06:08:49;;;;;;;9.93;5.75;;;15.10;99.90;;;;;;5037670;28;20053;-69
2022/08/09 06:11:16;;;;;;;7.32;5.30;;;15.20;99.90;;;;;;5037638;28;20132;-66
2022/08/09 06:13:42;;;;;;;8.82;5.28;;;15.30;99.90;;;;;;5037548;28;20045;-69
2022/08/09 06:16:07;;;;;;;8.57;6.78;;;15.40;99.90;;;;;;5037562;28;20099;-70
2022/08/09 06:18:33;;;;;;;9.88;5.22;;;15.50;99.90;;;;;;5037301;28;20080;-68
2022/08/09 06:21:00;;;;;;;8.52;6.00;;;15.60;99.90;;;;;;5037451;28;20049;-67
2022/08/09 06:23:29;;;;;;;10.32;6.05;;;15.60;99.90;;;;;;5037124;28;20045;-69
2022/08/09 06:25:55;;;;;;;8.15;5.82;;;15.80;99.90;;;;;;5037249;28;20045;-70
2022/08/09 06:28:20;;;;;;;7.00;5.70;;;15.80;99.90;;;;;;5037425;28;20321;-70
2022/08/09 06:30:46;;;;;;;9.63;6.10;;;15.90;99.90;;;;;;5036856;28;20124;-68
2022/08/09 06:33:11;;;;;;;7.63;6.47;;;16.10;99.90;;;;;;5037067;28;20049;-69
2022/08/09 06:35:37;;;;;;;9.32;6.18;;;16.20;99.90;;;;;;5037081;28;20514;-69
2022/08/09 06:38:03;;;;;;;8.82;5.63;;;16.30;99.90;;;;;;5037007;28;20137;-69
2022/08/09 06:40:28;;;;;;;13.20;5.93;;;16.40;99.90;;;;;;5037043;28;20087;-69
2022/08/09 06:42:54;;;;;;;10.23;6.72;;;16.40;99.90;;;;;;5037161;28;20144;-70
2022/08/09 06:45:20;;;;;;;8.43;5.28;;;16.50;99.90;;;;;;5019145;28;20061;-68
2022/08/09 06:47:47;;;;;;;7.07;5.25;;;16.60;99.90;;;;;;5036749;28;20046;-68
2022/08/09 06:50:13;;;;;;;10.75;5.78;;;16.80;99.90;;;;;;5036696;28;20140;-69
2022/08/09 06:52:44;;;;;;;7.68;5.57;;;16.90;99.90;;;;;;5036786;28;20057;-68
2022/08/09 06:55:11;;;;;;;11.40;7.10;;;17.00;99.90;;;;;;5036883;28;20075;-68
2022/08/09 06:57:36;;;;;;;11.15;6.82;;;17.00;99.90;;;;;;5036219;28;20049;-69
2022/08/09 07:00:03;;;;;;;10.48;6.85;;;17.10;99.90;;;;;;5036982;28;20052;-71
2022/08/09 07:02:28;;;;;;;9.07;5.60;;;17.10;99.90;;;;;;5036555;28;20053;-70
2022/08/09 07:04:54;;;;;;;8.30;6.28;;;17.30;99.90;;;;;;5036433;28;20444;-68
2022/08/09 07:07:19;;;;;;;8.20;5.35;;;17.40;99.90;;;;;;5036397;28;20052;-68
2022/08/09 07:09:45;;;;;;;7.65;5.38;;;17.50;99.90;;;;;;5036668;28;20049;-71
2022/08/09 07:12:11;;;;;;;8.48;5.13;;;17.60;99.90;;;;;;5036448;28;20047;-68
2022/08/09 07:14:36;;;;;;;8.13;5.85;;;17.70;99.90;;;;;;5019088;28;20041;-67
2022/08/09 07:17:02;;;;;;;7.28;5.00;;;17.80;99.90;;;;;;5019136;28;20041;-69
2022/08/09 07:19:28;;;;;;;8.30;5.50;;;17.90;99.90;;;;;;5036250;28;20111;-71
2022/08/09 07:21:54;;;;;;;8.15;5.57;;;18.00;99.90;;;;;;5036136;28;20464;-70
2022/08/09 07:24:19;;;;;;;8.73;5.70;;;18.10;99.90;;;;;;5036108;28;20116;-70
2022/08/09 07:26:45;;;;;;;8.25;5.97;;;18.30;99.90;;;;;;5036121;28;20460;-68
2022/08/09 07:29:10;;;;;;;7.93;4.93;;;18.30;99.90;;;;;;5036061;28;20054;-68
2022/08/09 07:31:36;;;;;;;9.65;5.10;;;18.50;99.90;;;;;;5035878;28;20067;-68
2022/08/09 07:34:01;;;;;;;8.90;5.60;;;18.50;99.90;;;;;;5035788;28;20053;-70
2022/08/09 07:36:29;;;;;;;7.50;4.63;;;18.60;99.90;;;;;;5018848;28;20133;-71
2022/08/09 07:38:56;;;;;;;7.07;4.47;;;18.70;99.90;;;;;;5018372;28;20137;-68
2022/08/09 07:41:22;;;;;;;6.70;4.20;;;18.70;99.90;;;;;;5035976;28;20072;-70
2022/08/09 07:43:47;;;;;;;8.68;4.60;;;18.70;99.90;;;;;;5034674;28;20053;-69
2022/08/09 07:46:13;;;;;;;6.47;3.92;;;18.80;99.90;;;;;;5035610;28;20088;-70
2022/08/09 07:48:39;;;;;;;7.30;3.35;;;18.90;99.90;;;;;;5018271;28;20053;-67
2022/08/09 07:51:04;;;;;;;6.35;3.33;;;19.00;99.90;;;;;;5035549;28;20042;-69
2022/08/09 07:53:30;;;;;;;7.18;3.40;;;19.10;99.90;;;;;;5035678;28;20075;-70
2022/08/09 07:55:55;;;;;;;5.63;3.25;;;19.20;99.90;;;;;;5035842;28;20068;-68
2022/08/09 07:58:22;;;;;;;4.82;3.30;;;19.10;99.90;;;;;;5018020;28;20056;-70
2022/08/09 08:00:48;;;;;;;5.35;3.00;;;19.20;99.90;;;;;;5035430;28;20136;-69
2022/08/09 08:03:14;;;;;;;5.50;2.80;;;19.30;99.90;;;;;;5035453;28;20136;-69
2022/08/09 08:05:39;;;;;;;5.93;3.00;;;19.40;99.90;;;;;;5018007;28;20049;-72
2022/08/09 08:08:05;;;;;;;3.65;2.65;;;19.50;99.90;;;;;;5017932;28;20042;-69
2022/08/09 08:10:31;;;;;;;5.43;3.03;;;19.60;99.90;;;;;;5035606;28;20072;-71
2022/08/09 08:12:57;;;;;;;4.40;3.03;;;19.70;99.90;;;;;;5017995;28;20064;-68
2022/08/09 08:15:22;;;;;;;5.72;2.60;;;19.90;99.90;;;;;;5035182;28;20119;-69
2022/08/09 08:17:52;;;;;;;5.43;2.70;;;19.90;99.90;;;;;;5035149;28;20398;-67
2022/08/09 08:20:22;;;;;;;6.18;2.60;;;20.10;99.90;;;;;;5035075;28;20442;-68
2022/08/09 08:22:48;;;;;;;4.78;2.42;;;20.20;99.90;;;;;;5035359;28;20119;-70
2022/08/09 08:25:13;;;;;;;5.50;2.90;;;20.30;99.90;;;;;;5035190;28;20041;-71
2022/08/09 08:27:40;;;;;;;5.55;2.90;;;20.40;99.90;;;;;;5034980;28;20049;-71
2022/08/09 08:30:06;;;;;;;4.45;2.60;;;20.60;99.90;;;;;;5034808;28;20467;-70
2022/08/09 08:32:32;;;;;;;4.68;2.42;;;20.80;99.90;;;;;;5034977;28;20038;-69
2022/08/09 08:34:58;;;;;;;2.97;2.35;;;20.90;99.90;;;;;;5035455;28;20076;-69
2022/08/09 08:37:23;;;;;;;6.55;2.50;;;21.00;99.90;;;;;;5034750;28;20533;-68
2022/08/09 08:39:49;;;;;;;3.25;2.28;;;20.90;99.90;;;;;;5035021;28;20060;-70
2022/08/09 08:42:15;;;;;;;5.07;2.50;;;20.90;99.90;;;;;;5035000;28;20042;-68
2022/08/09 08:44:42;;;;;;;6.40;2.65;;;20.80;99.90;;;;;;5034944;28;20447;-71
2022/08/09 08:47:11;;;;;;;5.32;2.63;;;20.80;99.90;;;;;;5034913;28;20133;-68
2022/08/09 08:49:37;;;;;;;4.05;2.35;;;20.80;99.90;;;;;;5034401;28;20046;-70
2022/08/09 08:52:03;;;;;;;5.38;2.83;;;20.70;99.90;;;;;;5034916;28;20073;-69
2022/08/09 08:54:30;;;;;;;5.53;2.50;;;20.50;99.90;;;;;;5035448;28;20042;-69
2022/08/09 08:56:55;;;;;;;4.85;2.58;;;20.50;99.90;;;;;;5038786;28;20041;-71
2022/08/09 08:59:21;;;;;;;5.93;2.55;;;20.50;99.90;;;;;;5038861;28;20431;-68
2022/08/09 09:01:49;;;;;;;4.53;2.83;;;20.40;99.90;;;;;;5038641;28;20343;-68
2022/08/09 09:04:17;;;;;;;5.72;2.50;;;20.40;99.90;;;;;;5038777;28;20045;-69
2022/08/09 09:06:44;;;;;;;4.05;2.45;;;20.40;99.90;;;;;;5038871;28;20046;-71
2022/08/09 09:09:14;;;;;;;3.42;2.40;;;20.40;99.90;;;;;;5038787;28;20057;-68
2022/08/09 09:11:41;;;;;;;2.92;2.05;;;20.50;99.90;;;;;;5038602;28;20124;-71
2022/08/09 09:14:15;;;;;;;3.90;2.20;;;20.50;99.90;;;;;;5038803;28;20099;-70
2022/08/09 09:16:41;;;;;;;4.30;2.42;;;20.70;99.90;;;;;;5038611;28;20162;-71
2022/08/09 09:19:09;;;;;;;3.30;2.30;;;20.90;99.90;;;;;;5021075;28;20053;-68
2022/08/09 09:21:34;;;;;;;4.45;1.98;;;21.10;99.90;;;;;;5038456;28;20037;-69
2022/08/09 09:24:04;;;;;;;2.50;1.83;;;21.30;99.90;;;;;;5038407;28;20064;-70
2022/08/09 09:26:30;;;;;;;2.85;1.85;;;21.30;99.90;;;;;;5038429;28;20049;-69
2022/08/09 09:28:56;;;;;;;2.22;1.83;;;21.40;99.90;;;;;;5021123;28;20099;-69
2022/08/09 09:31:23;;;;;;;2.95;2.00;;;21.50;99.90;;;;;;5038393;28;20049;-71
2022/08/09 09:33:49;;;;;;;3.03;1.60;;;21.40;99.90;;;;;;5038307;28;20096;-68
2022/08/09 09:36:15;;;;;;;2.40;1.75;;;21.30;99.90;;;;;;5020786;28;20081;-69
2022/08/09 09:38:55;;;;;;;4.80;2.30;;;21.30;99.90;;;;;;5037985;28;20041;-68
2022/08/09 09:41:26;;;;;;;4.13;1.92;;;21.20;99.90;;;;;;5038079;28;20041;-68
2022/08/09 09:43:57;;;;;;;3.80;2.15;;;21.20;99.90;;;;;;5037692;28;20048;-70
2022/08/09 09:46:34;;;;;;;4.28;1.90;;;21.20;99.90;;;;;;5038036;28;20049;-71
2022/08/09 09:49:04;;;;;;;3.50;1.83;;;21.20;99.90;;;;;;5037804;28;20364;-69
2022/08/09 09:51:31;;;;;;;5.03;2.00;;;21.20;99.90;;;;;;5037858;28;20107;-69
2022/08/09 09:54:10;;;;;;;4.63;2.30;;;21.20;99.90;;;;;;5037822;28;20084;-70
2022/08/09 09:56:44;;;;;;;3.15;2.33;;;21.20;99.90;;;;;;5037897;28;20455;-70
2022/08/09 09:59:11;;;;;;;3.88;2.42;;;21.20;99.90;;;;;;5037843;28;20049;-68
2022/08/09 10:01:37;;;;;;;3.92;2.45;;;21.20;99.90;;;;;;5037642;28;20072;-68
2022/08/09 10:04:05;;;;;;;6.63;2.75;;;21.30;99.90;;;;;;5037507;28;20452;-69
2022/08/09 10:06:42;;;;;;;4.28;2.22;;;21.40;99.90;;;;;;5036586;28;20045;-72
2022/08/09 10:09:08;;;;;;;3.53;2.08;;;21.50;99.90;;;;;;5037679;28;20194;-69
2022/08/09 10:11:34;;;;;;;2.10;1.80;;;21.40;99.90;;;;;;5020187;28;20053;-69
2022/08/09 10:14:01;;;;;;;3.47;2.00;;;21.40;99.90;;;;;;5037453;28;20045;-68
2022/08/09 10:16:36;;;;;;;5.70;2.00;;;21.40;99.90;;;;;;5037434;28;20045;-70
2022/08/09 10:19:05;;;;;;;5.05;1.80;;;21.50;99.90;;;;;;5037352;28;20156;-68
2022/08/09 10:21:32;;;;;;;3.03;1.90;;;21.60;99.90;;;;;;5037591;28;20046;-69
2022/08/09 10:24:02;;;;;;;3.28;1.95;;;21.80;99.90;;;;;;5037435;28;20046;-69
2022/08/09 10:26:28;;;;;;;2.85;1.92;;;21.80;99.90;;;;;;5037214;28;20061;-68
2022/08/09 10:28:57;;;;;;;4.55;2.10;;;22.10;99.90;;;;;;5019810;28;20045;-71
2022/08/09 10:31:23;;;;;;;5.97;1.92;;;22.20;99.90;;;;;;5037332;28;20052;-71
2022/08/09 10:33:50;;;;;;;1.92;1.35;;;22.40;99.90;;;;;;5037137;28;20049;-69
2022/08/09 10:36:16;;;;;;;2.38;1.42;;;22.40;99.90;;;;;;5037104;28;20046;-68
2022/08/09 10:38:44;;;;;;;2.80;1.52;;;22.60;99.90;;;;;;5036596;28;20049;-71
2022/08/09 10:41:11;;;;;;;3.08;1.50;;;22.60;99.90;;;;;;5036778;28;20041;-69
2022/08/09 10:43:47;;;;;;;2.33;1.38;;;22.80;99.90;;;;;;5036755;28;20419;-71
2022/08/09 10:46:22;;;;;;;2.92;1.77;;;22.90;99.90;;;;;;5036954;28;20050;-69
2022/08/09 10:49:05;;;;;;;3.30;1.80;;;23.00;99.90;;;;;;5036821;28;20144;-70
2022/08/09 10:52:01;;;;;;;4.38;1.70;;;22.90;99.90;;;;;;5036699;28;20049;-69
2022/08/09 10:54:27;;;;;;;5.32;2.15;;;22.80;99.90;;;;;;5036730;28;20057;-69
2022/08/09 10:57:09;;;;;;;2.78;1.60;;;22.70;99.90;;;;;;5036756;28;20049;-70
2022/08/09 10:59:36;;;;;;;2.92;1.90;;;22.60;99.90;;;;;;5036762;28;20055;-69
2022/08/09 11:02:07;;;;;;;2.40;1.83;;;22.50;99.90;;;;;;5036635;28;20100;-69
2022/08/09 11:04:34;;;;;;;2.83;1.75;;;22.50;99.90;;;;;;5036316;28;20056;-68
2022/08/09 11:07:00;;;;;;;5.97;2.13;;;22.60;99.90;;;;;;5019232;28;20056;-71
2022/08/09 11:09:46;;;;;;;2.55;1.90;;;22.80;99.90;;;;;;5036614;28;20363;-69
2022/08/09 11:12:15;;;;;;;2.05;1.70;;;22.80;99.90;;;;;;5036137;28;20058;-71
2022/08/09 11:14:53;;;;;;;2.63;1.70;;;22.90;99.90;;;;;;5036214;28;20072;-67
2022/08/09 11:17:19;;;;;;;3.90;1.63;;;22.90;99.90;;;;;;5036149;28;20046;-70
2022/08/09 11:20:02;;;;;;;3.13;1.70;;;22.90;99.90;;;;;;5036263;28;20187;-72
2022/08/09 11:22:43;;;;;;;1.92;1.67;;;22.90;99.90;;;;;;5036412;28;20049;-71
2022/08/09 11:25:22;;;;;;;2.42;1.70;;;23.10;99.90;;;;;;5036119;28;20087;-71
2022/08/09 11:27:51;;;;;;;2.38;1.30;;;23.20;99.90;;;;;;5036210;28;20055;-70
2022/08/09 11:30:22;;;;;;;2.75;1.42;;;23.30;99.90;;;;;;5036099;28;20092;-71
2022/08/09 11:32:50;;;;;;;1.33;1.23;;;23.40;99.90;;;;;;5036234;28;20144;-72
2022/08/09 11:35:37;;;;;;;2.63;1.40;;;23.50;99.90;;;;;;5036269;28;20083;-70
2022/08/09 11:38:30;;;;;;;2.47;1.33;;;23.60;99.90;;;;;;5035938;28;20132;-69
2022/08/09 11:40:56;;;;;;;1.48;1.10;;;23.70;99.90;;;;;;5035836;28;20479;-71
2022/08/09 11:43:25;;;;;;;1.33;1.10;;;23.70;99.90;;;;;;5018330;28;20463;-72
2022/08/09 11:46:01;;;;;;;2.78;1.40;;;23.80;99.90;;;;;;5035642;28;20085;-69
2022/08/09 11:48:49;;;;;;;2.08;1.40;;;23.90;99.90;;;;;;5035525;28;20049;-68
2022/08/09 11:51:15;;;;;;;2.20;1.40;;;24.00;99.90;;;;;;5035589;28;20046;-69
2022/08/09 11:53:42;;;;;;;1.30;1.00;;;24.00;99.90;;;;;;5018694;28;20057;-69
2022/08/09 11:56:13;;;;;;;2.05;1.38;;;24.00;99.90;;;;;;5035118;28;20316;-70
2022/08/09 11:58:45;;;;;;;2.17;1.13;;;24.00;99.90;;;;;;5035428;28;20124;-71
2022/08/09 12:01:13;;;;;;;2.83;1.20;;;24.00;99.90;;;;;;5035424;28;20034;-70
2022/08/09 12:03:39;;;;;;;2.35;1.05;;;24.20;99.90;;;;;;5035371;28;20045;-70
2022/08/09 12:06:13;;;;;;;4.63;1.30;;;24.20;99.90;;;;;;5035715;28;20052;-70
2022/08/09 12:08:49;;;;;;;1.48;1.10;;;24.20;99.90;;;;;;5035435;28;20095;-69
2022/08/09 12:11:16;;;;;;;3.08;1.15;;;24.20;99.90;;;;;;5034893;28;20046;-71
2022/08/09 12:13:46;;;;;;;2.50;1.40;;;24.20;99.90;;;;;;5035422;28;20053;-71
2022/08/09 12:16:23;;;;;;;3.15;1.33;;;24.30;99.90;;;;;;5035328;28;20045;-69
2022/08/09 12:18:50;;;;;;;2.35;1.17;;;24.30;99.90;;;;;;5034821;28;20099;-71
2022/08/09 12:21:28;;;;;;;1.45;0.95;;;24.30;99.90;;;;;;5035134;28;20509;-69
2022/08/09 12:23:55;;;;;;;2.42;1.27;;;24.40;99.90;;;;;;5035003;28;20041;-68
2022/08/09 12:26:21;;;;;;;1.20;1.10;;;24.40;99.90;;;;;;5035455;28;20049;-68
2022/08/09 12:28:53;;;;;;;2.53;0.98;;;24.50;99.90;;;;;;5034759;28;20045;-69
2022/08/09 12:31:28;;;;;;;3.75;1.17;;;24.70;99.90;;;;;;5035089;28;20061;-69
2022/08/09 12:33:54;;;;;;;1.70;1.10;;;24.80;99.90;;;;;;5034997;28;20053;-70
2022/08/09 12:36:22;;;;;;;3.78;1.23;;;25.10;99.90;;;;;;5034919;28;20053;-71
2022/08/09 12:38:51;;;;;;;1.67;0.98;;;25.40;99.90;;;;;;5035196;28;20344;-72
2022/08/09 12:41:26;;;;;;;2.35;1.55;;;25.70;99.90;;;;;;5034972;28;20045;-71
2022/08/09 12:43:53;;;;;;;1.60;0.90;;;26.00;99.90;;;;;;5034933;28;20041;-68
2022/08/09 12:46:19;;;;;;;1.25;0.85;;;26.20;99.90;;;;;;5034987;28;20045;-69
2022/08/09 12:48:44;;;;;;;2.53;1.20;;;26.30;99.90;;;;;;5034955;28;20057;-71
2022/08/09 12:51:10;;;;;;;2.40;1.02;;;26.70;99.50;;;;;;5034714;28;20060;-69
2022/08/09 12:53:38;;;;;;;4.60;1.20;;;26.90;99.00;;;;;;5035168;28;20045;-70